sensor_id;sensor_type;location;lat;lon;timestamp;pressure;altitude;pressure_sealevel;temperature;humidity
37860;BME280;23698;52.014;5.190;2023-06-01T05:02:56;102349.09;;;15.54;100.00
37860;BME280;23698;52.014;5.190;2023-06-01T05:05:42;102334.69;;;15.75;100.00
37860;BME280;23698;52.014;5.190;2023-06-01T05:08:28;102351.34;;;15.65;100.00
37860;BME280;23698;52.014;5.190;2023-06-01T05:11:16;102345.22;;;15.63;100.00
37860;BME280;23698;52.014;5.190;2023-06-01T05:14:03;102346.88;;;16.67;100.00
37860;BME280;23698;52.014;5.190;2023-06-01T10:00:47;102292.38;;;21.18;100.00
37860;BME280;23698;52.014;5.190;2023-06-01T10:03:33;102302.00;;;21.34;100.00
37860;BME280;23698;52.014;5.190;2023-06-01T10:06:20;102295.88;;;20.56;100.00
37860;BME280;23698;52.014;5.190;2023-06-01T10:09:10;102302.41;;;21.12;100.00
37860;BME280;23698;52.014;5.190;2023-06-01T10:11:59;102293.81;;;21.02;100.00
37860;BME280;23698;52.014;5.190;2023-06-01T10:14:46;102299.00;;;21.17;100.00
37860;BME280;23698;52.014;5.190;2023-06-01T13:42:59;102279.53;;;20.61;100.00
37860;BME280;23698;52.014;5.190;2023-06-01T13:45:46;102273.63;;;21.26;100.00
37860;BME280;23698;52.014;5.190;2023-06-01T13:48:33;102275.13;;;21.47;100.00
37860;BME280;23698;52.014;5.190;2023-06-01T13:51:20;102270.88;;;20.83;100.00
37860;BME280;23698;52.014;5.190;2023-06-01T13:54:08;102263.72;;;21.00;100.00
37860;BME280;23698;52.014;5.190;2023-06-01T13:56:55;102263.72;;;21.00;100.00
37860;BME280;23698;52.014;5.190;2023-06-01T13:59:43;102267.84;;;20.91;100.00
37860;BME280;23698;52.014;5.190;2023-06-01T14:02:50;102258.09;;;21.32;100.00
37860;BME280;23698;52.014;5.190;2023-06-01T14:05:38;102263.31;;;22.08;100.00
37860;BME280;23698;52.014;5.190;2023-06-01T14:08:39;102253.47;;;21.81;100.00
37860;BME280;23698;52.014;5.190;2023-06-01T14:11:25;102251.75;;;21.99;100.00
37860;BME280;23698;52.014;5.190;2023-06-01T14:14:15;102253.50;;;21.07;100.00
37860;BME280;23698;52.014;5.190;2023-06-01T14:17:04;102252.97;;;21.36;100.00
37860;BME280;23698;52.014;5.190;2023-06-01T14:19:50;102253.78;;;21.18;100.00
37860;BME280;23698;52.014;5.190;2023-06-01T14:22:37;102249.50;;;21.77;100.00
37860;BME280;23698;52.014;5.190;2023-06-01T14:25:24;102249.06;;;21.25;100.00
37860;BME280;23698;52.014;5.190;2023-06-01T14:28:11;102252.50;;;22.48;100.00
37860;BME280;23698;52.014;5.190;2023-06-01T14:30:57;102255.50;;;22.04;100.00
37860;BME280;23698;52.014;5.190;2023-06-01T14:33:46;102256.81;;;22.32;100.00
37860;BME280;23698;52.014;5.190;2023-06-01T14:36:33;102265.69;;;22.34;100.00
37860;BME280;23698;52.014;5.190;2023-06-01T14:39:26;102259.41;;;22.93;100.00
37860;BME280;23698;52.014;5.190;2023-06-01T14:42:22;102259.75;;;22.49;100.00
37860;BME280;23698;52.014;5.190;2023-06-01T14:45:09;102251.34;;;23.03;100.00
37860;BME280;23698;52.014;5.190;2023-06-01T14:47:56;102239.88;;;22.29;100.00
37860;BME280;23698;52.014;5.190;2023-06-01T14:50:44;102242.38;;;22.00;100.00
37860;BME280;23698;52.014;5.190;2023-06-01T14:53:31;102239.00;;;21.12;100.00
37860;BME280;23698;52.014;5.190;2023-06-01T14:56:17;102231.41;;;21.81;100.00
37860;BME280;23698;52.014;5.190;2023-06-01T14:59:06;102217.19;;;20.67;100.00
37860;BME280;23698;52.014;5.190;2023-06-01T16:01:00;102201.63;;;18.60;100.00
37860;BME280;23698;52.014;5.190;2023-06-01T16:04:02;102203.88;;;19.16;100.00
37860;BME280;23698;52.014;5.190;2023-06-01T16:06:48;102190.81;;;19.05;100.00
37860;BME280;23698;52.014;5.190;2023-06-01T16:09:36;102203.94;;;18.90;100.00
37860;BME280;23698;52.014;5.190;2023-06-01T16:12:23;102200.75;;;18.73;100.00
37860;BME280;23698;52.014;5.190;2023-06-01T17:31:59;102169.88;;;19.04;100.00
37860;BME280;23698;52.014;5.190;2023-06-01T17:34:47;102161.03;;;18.89;100.00
37860;BME280;23698;52.014;5.190;2023-06-01T17:37:34;102167.41;;;18.29;100.00
37860;BME280;23698;52.014;5.190;2023-06-01T17:40:21;102160.03;;;18.63;100.00
37860;BME280;23698;52.014;5.190;2023-06-01T17:43:07;102168.19;;;19.55;100.00
37860;BME280;23698;52.014;5.190;2023-06-01T17:45:54;102162.75;;;17.21;100.00
37860;BME280;23698;52.014;5.190;2023-06-01T17:48:41;102156.59;;;18.94;100.00
37860;BME280;23698;52.014;5.190;2023-06-01T17:51:28;102159.94;;;19.93;100.00
37860;BME280;23698;52.014;5.190;2023-06-01T17:54:14;102161.28;;;18.60;100.00
37860;BME280;23698;52.014;5.190;2023-06-01T17:57:01;102157.91;;;17.91;100.00
37860;BME280;23698;52.014;5.190;2023-06-01T17:59:47;102166.75;;;17.87;100.00
37860;BME280;23698;52.014;5.190;2023-06-01T18:02:35;102160.34;;;17.60;100.00
37860;BME280;23698;52.014;5.190;2023-06-01T18:05:23;102162.34;;;18.46;100.00
37860;BME280;23698;52.014;5.190;2023-06-01T18:08:09;102158.75;;;18.59;100.00
37860;BME280;23698;52.014;5.190;2023-06-01T18:10:56;102160.31;;;19.20;100.00
37860;BME280;23698;52.014;5.190;2023-06-01T18:13:46;102158.75;;;18.85;100.00
37860;BME280;23698;52.014;5.190;2023-06-01T18:16:38;102159.66;;;19.70;100.00
37860;BME280;23698;52.014;5.190;2023-06-01T18:19:24;102157.28;;;19.73;100.00
37860;BME280;23698;52.014;5.190;2023-06-01T18:22:12;102167.59;;;18.81;100.00
37860;BME280;23698;52.014;5.190;2023-06-01T18:24:59;102164.03;;;18.60;100.00
37860;BME280;23698;52.014;5.190;2023-06-01T18:27:45;102156.91;;;19.24;100.00
37860;BME280;23698;52.014;5.190;2023-06-01T18:30:32;102159.81;;;18.44;100.00
37860;BME280;23698;52.014;5.190;2023-06-01T18:33:19;102156.25;;;19.74;100.00
37860;BME280;23698;52.014;5.190;2023-06-01T18:36:07;102170.56;;;17.99;100.00
37860;BME280;23698;52.014;5.190;2023-06-01T18:38:55;102164.28;;;18.12;100.00
37860;BME280;23698;52.014;5.190;2023-06-01T18:41:41;102163.25;;;17.45;100.00
37860;BME280;23698;52.014;5.190;2023-06-01T18:44:27;102165.63;;;17.13;100.00
37860;BME280;23698;52.014;5.190;2023-06-01T18:47:14;102155.94;;;17.72;100.00
37860;BME280;23698;52.014;5.190;2023-06-01T18:50:00;102159.78;;;17.91;100.00
37860;BME280;23698;52.014;5.190;2023-06-01T18:52:47;102155.38;;;18.50;100.00
37860;BME280;23698;52.014;5.190;2023-06-01T18:55:34;102151.31;;;17.79;100.00
37860;BME280;23698;52.014;5.190;2023-06-01T18:58:23;102150.22;;;17.60;100.00
37860;BME280;23698;52.014;5.190;2023-06-01T19:01:10;102152.78;;;17.82;100.00
37860;BME280;23698;52.014;5.190;2023-06-01T19:04:01;102150.97;;;18.09;100.00
37860;BME280;23698;52.014;5.190;2023-06-01T19:06:50;102147.28;;;18.89;100.00
37860;BME280;23698;52.014;5.190;2023-06-01T19:09:38;102149.03;;;18.49;100.00
37860;BME280;23698;52.014;5.190;2023-06-01T19:12:30;102135.34;;;18.29;100.00
37860;BME280;23698;52.014;5.190;2023-06-01T19:15:18;102143.97;;;18.66;100.00
37860;BME280;23698;52.014;5.190;2023-06-01T19:18:10;102132.69;;;14.54;100.00
37860;BME280;23698;52.014;5.190;2023-06-01T19:21:09;102131.50;;;14.71;100.00
37860;BME280;23698;52.014;5.190;2023-06-01T19:24:00;102141.03;;;15.42;100.00
37860;BME280;23698;52.014;5.190;2023-06-01T19:27:00;102137.09;;;16.31;100.00
37860;BME280;23698;52.014;5.190;2023-06-01T19:29:54;102145.38;;;15.21;100.00
37860;BME280;23698;52.014;5.190;2023-06-01T19:32:45;102149.50;;;16.33;100.00
37860;BME280;23698;52.014;5.190;2023-06-01T19:35:31;102149.75;;;16.10;100.00
37860;BME280;23698;52.014;5.190;2023-06-01T19:38:18;102157.63;;;16.76;100.00
37860;BME280;23698;52.014;5.190;2023-06-01T19:41:07;102155.94;;;17.17;100.00
37860;BME280;23698;52.014;5.190;2023-06-01T19:43:56;102140.19;;;15.99;100.00
37860;BME280;23698;52.014;5.190;2023-06-01T19:46:59;102142.69;;;16.22;100.00
37860;BME280;23698;52.014;5.190;2023-06-01T19:49:48;102147.00;;;16.10;100.00
37860;BME280;23698;52.014;5.190;2023-06-01T19:52:40;102152.94;;;16.42;100.00
37860;BME280;23698;52.014;5.190;2023-06-01T19:55:29;102161.44;;;16.82;100.00
37860;BME280;23698;52.014;5.190;2023-06-01T19:58:19;102157.63;;;15.98;100.00
37860;BME280;23698;52.014;5.190;2023-06-01T22:02:37;102180.81;;;15.15;100.00
37860;BME280;23698;52.014;5.190;2023-06-01T22:05:24;102175.19;;;14.48;100.00
37860;BME280;23698;52.014;5.190;2023-06-01T22:08:10;102192.09;;;14.67;100.00
37860;BME280;23698;52.014;5.190;2023-06-01T22:10:57;102196.25;;;14.40;100.00
37860;BME280;23698;52.014;5.190;2023-06-01T22:13:43;102201.06;;;15.20;100.00
